sensor_id;sensor_type;location;lat;lon;timestamp;temperature;humidity
42663;DHT22;44330;51.360;6.686;2023-05-14T00:01:19;12.30;91.20
42663;DHT22;44330;51.360;6.686;2023-05-14T00:03:45;12.20;91.30
42663;DHT22;44330;51.360;6.686;2023-05-14T00:06:10;12.20;91.30
42663;DHT22;44330;51.360;6.686;2023-05-14T00:08:36;12.10;91.40
42663;DHT22;44330;51.360;6.686;2023-05-14T00:11:01;12.10;91.40
42663;DHT22;44330;51.360;6.686;2023-05-14T00:13:27;12.10;91.50
42663;DHT22;44330;51.360;6.686;2023-05-14T00:15:53;12.00;91.60
42663;DHT22;44330;51.360;6.686;2023-05-14T00:18:18;12.00;91.70
42663;DHT22;44330;51.360;6.686;2023-05-14T00:20:44;11.90;91.60
42663;DHT22;44330;51.360;6.686;2023-05-14T00:23:09;11.90;91.80
42663;DHT22;44330;51.360;6.686;2023-05-14T00:25:35;11.80;91.70
42663;DHT22;44330;51.360;6.686;2023-05-14T00:28:02;11.70;91.70
42663;DHT22;44330;51.360;6.686;2023-05-14T00:30:27;11.70;91.70
42663;DHT22;44330;51.360;6.686;2023-05-14T00:32:53;11.70;91.80
42663;DHT22;44330;51.360;6.686;2023-05-14T00:35:18;11.60;91.80
42663;DHT22;44330;51.360;6.686;2023-05-14T00:37:45;11.60;92.00
42663;DHT22;44330;51.360;6.686;2023-05-14T00:40:11;11.60;92.10
42663;DHT22;44330;51.360;6.686;2023-05-14T00:42:38;11.50;92.00
42663;DHT22;44330;51.360;6.686;2023-05-14T00:45:04;11.50;92.00
42663;DHT22;44330;51.360;6.686;2023-05-14T00:47:30;11.50;92.00
42663;DHT22;44330;51.360;6.686;2023-05-14T00:49:57;11.50;92.10
42663;DHT22;44330;51.360;6.686;2023-05-14T00:52:23;11.40;92.10
42663;DHT22;44330;51.360;6.686;2023-05-14T00:54:49;11.40;92.30
42663;DHT22;44330;51.360;6.686;2023-05-14T00:57:15;11.30;92.30
42663;DHT22;44330;51.360;6.686;2023-05-14T00:59:41;11.30;92.30
42663;DHT22;44330;51.360;6.686;2023-05-14T01:02:07;11.20;92.40
42663;DHT22;44330;51.360;6.686;2023-05-14T01:04:33;11.20;92.40
42663;DHT22;44330;51.360;6.686;2023-05-14T01:07:25;11.10;92.50
42663;DHT22;44330;51.360;6.686;2023-05-14T01:10:02;11.00;92.60
42663;DHT22;44330;51.360;6.686;2023-05-14T01:12:50;11.00;92.80
42663;DHT22;44330;51.360;6.686;2023-05-14T01:15:20;10.90;92.70
42663;DHT22;44330;51.360;6.686;2023-05-14T01:17:58;10.90;92.70
42663;DHT22;44330;51.360;6.686;2023-05-14T01:20:25;10.80;92.80
42663;DHT22;44330;51.360;6.686;2023-05-14T01:22:51;10.80;93.20
42663;DHT22;44330;51.360;6.686;2023-05-14T01:25:16;10.80;93.50
42663;DHT22;44330;51.360;6.686;2023-05-14T01:27:45;10.80;93.50
42663;DHT22;44330;51.360;6.686;2023-05-14T01:30:46;10.80;93.70
42663;DHT22;44330;51.360;6.686;2023-05-14T01:33:16;10.80;93.50
42663;DHT22;44330;51.360;6.686;2023-05-14T01:35:43;10.70;93.40
42663;DHT22;44330;51.360;6.686;2023-05-14T01:38:12;10.70;93.40
42663;DHT22;44330;51.360;6.686;2023-05-14T01:40:38;10.60;93.40
42663;DHT22;44330;51.360;6.686;2023-05-14T01:43:04;10.60;93.40
42663;DHT22;44330;51.360;6.686;2023-05-14T01:45:33;10.50;93.40
42663;DHT22;44330;51.360;6.686;2023-05-14T01:47:59;10.50;93.50
42663;DHT22;44330;51.360;6.686;2023-05-14T01:50:24;10.40;93.50
42663;DHT22;44330;51.360;6.686;2023-05-14T01:52:50;10.40;93.40
42663;DHT22;44330;51.360;6.686;2023-05-14T01:55:18;10.30;93.50
42663;DHT22;44330;51.360;6.686;2023-05-14T01:57:43;10.30;93.60
42663;DHT22;44330;51.360;6.686;2023-05-14T02:00:09;10.30;93.60
42663;DHT22;44330;51.360;6.686;2023-05-14T02:02:35;10.30;93.70
42663;DHT22;44330;51.360;6.686;2023-05-14T02:05:00;10.20;93.70
42663;DHT22;44330;51.360;6.686;2023-05-14T02:07:26;10.20;93.70
42663;DHT22;44330;51.360;6.686;2023-05-14T02:09:52;10.20;93.70
42663;DHT22;44330;51.360;6.686;2023-05-14T02:12:17;10.10;93.80
42663;DHT22;44330;51.360;6.686;2023-05-14T02:14:43;10.10;93.80
42663;DHT22;44330;51.360;6.686;2023-05-14T02:17:08;10.00;93.80
42663;DHT22;44330;51.360;6.686;2023-05-14T02:19:34;10.00;93.80
42663;DHT22;44330;51.360;6.686;2023-05-14T02:21:59;10.00;93.80
42663;DHT22;44330;51.360;6.686;2023-05-14T02:24:28;9.90;93.80
42663;DHT22;44330;51.360;6.686;2023-05-14T02:26:53;9.90;94.00
42663;DHT22;44330;51.360;6.686;2023-05-14T02:29:19;9.90;93.80
42663;DHT22;44330;51.360;6.686;2023-05-14T02:31:44;9.80;93.90
42663;DHT22;44330;51.360;6.686;2023-05-14T02:34:10;9.80;93.90
42663;DHT22;44330;51.360;6.686;2023-05-14T02:36:35;9.70;93.90
42663;DHT22;44330;51.360;6.686;2023-05-14T02:39:01;9.70;93.90
42663;DHT22;44330;51.360;6.686;2023-05-14T02:41:26;9.70;93.90
42663;DHT22;44330;51.360;6.686;2023-05-14T02:43:53;9.70;94.00
42663;DHT22;44330;51.360;6.686;2023-05-14T02:46:19;9.60;94.00
42663;DHT22;44330;51.360;6.686;2023-05-14T02:48:44;9.70;94.00
42663;DHT22;44330;51.360;6.686;2023-05-14T02:51:10;9.60;94.00
42663;DHT22;44330;51.360;6.686;2023-05-14T02:53:36;9.60;94.00
42663;DHT22;44330;51.360;6.686;2023-05-14T02:56:01;9.60;94.10
42663;DHT22;44330;51.360;6.686;2023-05-14T02:58:27;9.60;94.30
42663;DHT22;44330;51.360;6.686;2023-05-14T03:00:52;9.70;94.70
42663;DHT22;44330;51.360;6.686;2023-05-14T03:03:18;9.70;94.80
42663;DHT22;44330;51.360;6.686;2023-05-14T03:05:44;9.70;94.90
42663;DHT22;44330;51.360;6.686;2023-05-14T03:08:09;9.80;95.00
42663;DHT22;44330;51.360;6.686;2023-05-14T03:10:35;9.80;95.20
42663;DHT22;44330;51.360;6.686;2023-05-14T03:13:01;9.80;95.20
42663;DHT22;44330;51.360;6.686;2023-05-14T03:15:27;9.80;95.20
42663;DHT22;44330;51.360;6.686;2023-05-14T03:17:52;9.80;95.20
42663;DHT22;44330;51.360;6.686;2023-05-14T03:20:18;9.80;95.20
42663;DHT22;44330;51.360;6.686;2023-05-14T03:22:44;9.70;95.20
42663;DHT22;44330;51.360;6.686;2023-05-14T03:25:09;9.70;95.20
42663;DHT22;44330;51.360;6.686;2023-05-14T03:27:35;9.70;95.20
42663;DHT22;44330;51.360;6.686;2023-05-14T03:30:00;9.70;95.20
42663;DHT22;44330;51.360;6.686;2023-05-14T03:32:26;9.70;95.30
42663;DHT22;44330;51.360;6.686;2023-05-14T03:34:51;9.70;95.30
42663;DHT22;44330;51.360;6.686;2023-05-14T03:37:17;9.60;95.20
42663;DHT22;44330;51.360;6.686;2023-05-14T03:39:42;9.60;95.20
42663;DHT22;44330;51.360;6.686;2023-05-14T03:42:08;9.60;95.20
42663;DHT22;44330;51.360;6.686;2023-05-14T03:44:33;9.50;95.30
42663;DHT22;44330;51.360;6.686;2023-05-14T03:46:59;9.50;95.30
42663;DHT22;44330;51.360;6.686;2023-05-14T03:49:24;9.50;95.30
42663;DHT22;44330;51.360;6.686;2023-05-14T03:51:50;9.40;95.30
42663;DHT22;44330;51.360;6.686;2023-05-14T03:54:15;9.40;95.30
42663;DHT22;44330;51.360;6.686;2023-05-14T03:56:41;9.30;95.30
42663;DHT22;44330;51.360;6.686;2023-05-14T03:59:06;9.30;95.40
42663;DHT22;44330;51.360;6.686;2023-05-14T04:01:32;9.30;95.40
42663;DHT22;44330;51.360;6.686;2023-05-14T04:03:57;9.30;95.40
42663;DHT22;44330;51.360;6.686;2023-05-14T04:06:23;9.20;95.30
42663;DHT22;44330;51.360;6.686;2023-05-14T04:08:48;9.20;95.40
42663;DHT22;44330;51.360;6.686;2023-05-14T04:11:14;9.20;95.40
42663;DHT22;44330;51.360;6.686;2023-05-14T04:13:39;9.20;95.40
42663;DHT22;44330;51.360;6.686;2023-05-14T04:16:05;9.20;95.40
42663;DHT22;44330;51.360;6.686;2023-05-14T04:18:31;9.10;95.40
42663;DHT22;44330;51.360;6.686;2023-05-14T04:20:59;9.20;95.50
42663;DHT22;44330;51.360;6.686;2023-05-14T04:23:25;9.10;95.50
42663;DHT22;44330;51.360;6.686;2023-05-14T04:25:50;9.20;95.60
42663;DHT22;44330;51.360;6.686;2023-05-14T04:28:16;9.20;95.60
42663;DHT22;44330;51.360;6.686;2023-05-14T04:30:41;9.20;95.60
42663;DHT22;44330;51.360;6.686;2023-05-14T04:33:07;9.20;95.60
42663;DHT22;44330;51.360;6.686;2023-05-14T04:35:32;9.20;95.70
42663;DHT22;44330;51.360;6.686;2023-05-14T04:37:58;9.30;95.70
42663;DHT22;44330;51.360;6.686;2023-05-14T04:40:24;9.30;95.70
42663;DHT22;44330;51.360;6.686;2023-05-14T04:42:49;9.40;95.70
42663;DHT22;44330;51.360;6.686;2023-05-14T04:45:15;9.50;95.80
42663;DHT22;44330;51.360;6.686;2023-05-14T04:47:41;9.40;95.80
42663;DHT22;44330;51.360;6.686;2023-05-14T04:50:07;9.40;95.80
42663;DHT22;44330;51.360;6.686;2023-05-14T04:52:34;9.50;95.90
42663;DHT22;44330;51.360;6.686;2023-05-14T04:54:59;9.50;95.90
42663;DHT22;44330;51.360;6.686;2023-05-14T04:57:25;9.60;96.00
42663;DHT22;44330;51.360;6.686;2023-05-14T04:59:51;9.70;96.00
42663;DHT22;44330;51.360;6.686;2023-05-14T05:02:16;9.70;96.00
42663;DHT22;44330;51.360;6.686;2023-05-14T05:04:42;9.70;95.90
42663;DHT22;44330;51.360;6.686;2023-05-14T05:07:07;9.70;95.90
42663;DHT22;44330;51.360;6.686;2023-05-14T05:09:33;9.70;95.90
42663;DHT22;44330;51.360;6.686;2023-05-14T05:11:58;9.70;95.80
42663;DHT22;44330;51.360;6.686;2023-05-14T05:14:26;9.70;95.80
42663;DHT22;44330;51.360;6.686;2023-05-14T05:16:51;9.80;95.90
42663;DHT22;44330;51.360;6.686;2023-05-14T05:19:17;9.90;96.10
42663;DHT22;44330;51.360;6.686;2023-05-14T05:21:42;9.90;96.30
42663;DHT22;44330;51.360;6.686;2023-05-14T05:24:08;10.00;96.40
42663;DHT22;44330;51.360;6.686;2023-05-14T05:26:33;10.10;96.40
42663;DHT22;44330;51.360;6.686;2023-05-14T05:29:03;10.20;96.60
42663;DHT22;44330;51.360;6.686;2023-05-14T05:31:31;10.30;96.70
42663;DHT22;44330;51.360;6.686;2023-05-14T05:34:00;10.40;96.70
42663;DHT22;44330;51.360;6.686;2023-05-14T05:36:25;10.50;96.80
42663;DHT22;44330;51.360;6.686;2023-05-14T05:38:51;10.60;96.80
42663;DHT22;44330;51.360;6.686;2023-05-14T05:41:17;10.80;96.40
42663;DHT22;44330;51.360;6.686;2023-05-14T05:43:42;10.90;95.90
42663;DHT22;44330;51.360;6.686;2023-05-14T05:46:08;10.90;95.70
42663;DHT22;44330;51.360;6.686;2023-05-14T05:48:33;11.00;95.50
42663;DHT22;44330;51.360;6.686;2023-05-14T05:50:59;11.00;95.50
42663;DHT22;44330;51.360;6.686;2023-05-14T05:53:24;11.00;95.50
42663;DHT22;44330;51.360;6.686;2023-05-14T05:55:50;11.10;95.50
42663;DHT22;44330;51.360;6.686;2023-05-14T05:58:19;11.10;95.40
42663;DHT22;44330;51.360;6.686;2023-05-14T06:00:45;11.20;95.30
42663;DHT22;44330;51.360;6.686;2023-05-14T06:03:12;11.20;95.30
42663;DHT22;44330;51.360;6.686;2023-05-14T06:05:37;11.30;95.50
42663;DHT22;44330;51.360;6.686;2023-05-14T06:08:03;11.50;95.30
42663;DHT22;44330;51.360;6.686;2023-05-14T06:10:29;11.70;91.60
42663;DHT22;44330;51.360;6.686;2023-05-14T06:12:54;11.90;91.50
42663;DHT22;44330;51.360;6.686;2023-05-14T06:15:20;12.00;90.70
42663;DHT22;44330;51.360;6.686;2023-05-14T06:17:46;12.10;89.10
42663;DHT22;44330;51.360;6.686;2023-05-14T06:20:11;12.40;89.30
42663;DHT22;44330;51.360;6.686;2023-05-14T06:22:37;12.50;89.00
42663;DHT22;44330;51.360;6.686;2023-05-14T06:25:03;12.60;87.00
42663;DHT22;44330;51.360;6.686;2023-05-14T06:27:28;12.80;87.30
42663;DHT22;44330;51.360;6.686;2023-05-14T06:29:54;12.80;87.20
42663;DHT22;44330;51.360;6.686;2023-05-14T06:32:20;12.90;86.90
42663;DHT22;44330;51.360;6.686;2023-05-14T06:34:45;13.00;85.60
42663;DHT22;44330;51.360;6.686;2023-05-14T06:37:11;13.10;84.20
42663;DHT22;44330;51.360;6.686;2023-05-14T06:39:37;13.20;84.60
42663;DHT22;44330;51.360;6.686;2023-05-14T06:42:03;13.30;85.80
42663;DHT22;44330;51.360;6.686;2023-05-14T06:44:29;13.50;82.90
42663;DHT22;44330;51.360;6.686;2023-05-14T06:46:54;13.70;80.00
42663;DHT22;44330;51.360;6.686;2023-05-14T06:49:20;13.80;79.90
42663;DHT22;44330;51.360;6.686;2023-05-14T06:51:46;13.90;80.80
42663;DHT22;44330;51.360;6.686;2023-05-14T06:54:12;14.00;77.00
42663;DHT22;44330;51.360;6.686;2023-05-14T06:56:37;14.00;77.80
42663;DHT22;44330;51.360;6.686;2023-05-14T06:59:03;14.20;80.90
42663;DHT22;44330;51.360;6.686;2023-05-14T07:01:28;14.50;74.60
42663;DHT22;44330;51.360;6.686;2023-05-14T07:03:54;14.70;73.10
42663;DHT22;44330;51.360;6.686;2023-05-14T07:06:21;15.00;70.70
42663;DHT22;44330;51.360;6.686;2023-05-14T07:08:47;15.20;68.80
42663;DHT22;44330;51.360;6.686;2023-05-14T07:11:12;15.40;64.50
42663;DHT22;44330;51.360;6.686;2023-05-14T07:13:39;15.70;59.00
42663;DHT22;44330;51.360;6.686;2023-05-14T07:16:05;15.90;62.50
42663;DHT22;44330;51.360;6.686;2023-05-14T07:18:31;16.20;59.10
42663;DHT22;44330;51.360;6.686;2023-05-14T07:20:56;16.50;54.40
42663;DHT22;44330;51.360;6.686;2023-05-14T07:23:22;16.80;46.70
42663;DHT22;44330;51.360;6.686;2023-05-14T07:25:47;17.00;46.20
42663;DHT22;44330;51.360;6.686;2023-05-14T07:28:13;17.20;31.20
42663;DHT22;44330;51.360;6.686;2023-05-14T07:30:38;17.30;35.90
42663;DHT22;44330;51.360;6.686;2023-05-14T07:33:04;17.50;17.30
42663;DHT22;44330;51.360;6.686;2023-05-14T07:35:30;17.70;27.70
42663;DHT22;44330;51.360;6.686;2023-05-14T07:37:55;17.90;10.20
42663;DHT22;44330;51.360;6.686;2023-05-14T07:40:21;17.90;1.20
42663;DHT22;44330;51.360;6.686;2023-05-14T07:42:46;18.20;18.20
42663;DHT22;44330;51.360;6.686;2023-05-14T07:45:12;18.40;1.00
42663;DHT22;44330;51.360;6.686;2023-05-14T07:47:38;18.80;1.00
42663;DHT22;44330;51.360;6.686;2023-05-14T07:50:05;19.10;8.50
42663;DHT22;44330;51.360;6.686;2023-05-14T07:52:31;19.40;1.00
42663;DHT22;44330;51.360;6.686;2023-05-14T07:54:56;19.60;1.00
42663;DHT22;44330;51.360;6.686;2023-05-14T07:57:22;19.80;1.00
42663;DHT22;44330;51.360;6.686;2023-05-14T07:59:47;19.30;1.00
42663;DHT22;44330;51.360;6.686;2023-05-14T08:02:13;19.60;2.70
42663;DHT22;44330;51.360;6.686;2023-05-14T08:04:40;19.80;1.00
42663;DHT22;44330;51.360;6.686;2023-05-14T08:07:06;20.00;1.00
42663;DHT22;44330;51.360;6.686;2023-05-14T08:09:33;20.40;1.00
42663;DHT22;44330;51.360;6.686;2023-05-14T08:11:58;20.80;1.00
42663;DHT22;44330;51.360;6.686;2023-05-14T08:14:24;21.00;99.90
42663;DHT22;44330;51.360;6.686;2023-05-14T08:16:49;21.20;99.90
42663;DHT22;44330;51.360;6.686;2023-05-14T08:19:15;21.40;99.90
42663;DHT22;44330;51.360;6.686;2023-05-14T08:21:40;21.50;99.90
42663;DHT22;44330;51.360;6.686;2023-05-14T08:24:06;21.60;1.00
42663;DHT22;44330;51.360;6.686;2023-05-14T08:26:32;21.60;99.90
42663;DHT22;44330;51.360;6.686;2023-05-14T08:28:57;21.70;99.90
42663;DHT22;44330;51.360;6.686;2023-05-14T08:31:23;21.90;99.90
42663;DHT22;44330;51.360;6.686;2023-05-14T08:33:48;22.20;99.90
42663;DHT22;44330;51.360;6.686;2023-05-14T08:36:14;22.50;99.90
42663;DHT22;44330;51.360;6.686;2023-05-14T08:38:39;22.80;97.90
42663;DHT22;44330;51.360;6.686;2023-05-14T08:41:06;22.80;99.90
42663;DHT22;44330;51.360;6.686;2023-05-14T08:43:51;22.80;99.90
42663;DHT22;44330;51.360;6.686;2023-05-14T08:46:23;22.40;87.00
42663;DHT22;44330;51.360;6.686;2023-05-14T08:48:55;22.50;99.90
42663;DHT22;44330;51.360;6.686;2023-05-14T08:51:23;22.90;99.90
42663;DHT22;44330;51.360;6.686;2023-05-14T08:53:49;23.30;61.80
42663;DHT22;44330;51.360;6.686;2023-05-14T08:56:16;23.60;99.90
42663;DHT22;44330;51.360;6.686;2023-05-14T08:58:42;24.00;99.90
42663;DHT22;44330;51.360;6.686;2023-05-14T09:01:08;24.10;1.00
42663;DHT22;44330;51.360;6.686;2023-05-14T09:03:35;23.60;1.00
42663;DHT22;44330;51.360;6.686;2023-05-14T09:06:02;23.60;99.90
42663;DHT22;44330;51.360;6.686;2023-05-14T09:08:28;23.10;99.90
42663;DHT22;44330;51.360;6.686;2023-05-14T09:10:57;23.40;1.00
42663;DHT22;44330;51.360;6.686;2023-05-14T09:13:23;23.70;1.00
42663;DHT22;44330;51.360;6.686;2023-05-14T09:15:55;23.90;99.90
42663;DHT22;44330;51.360;6.686;2023-05-14T09:18:21;24.00;99.90
42663;DHT22;44330;51.360;6.686;2023-05-14T09:20:46;24.50;99.90
42663;DHT22;44330;51.360;6.686;2023-05-14T09:23:12;24.80;99.90
42663;DHT22;44330;51.360;6.686;2023-05-14T09:25:38;25.10;99.90
42663;DHT22;44330;51.360;6.686;2023-05-14T09:28:05;25.30;99.90
42663;DHT22;44330;51.360;6.686;2023-05-14T09:30:32;25.20;99.90
42663;DHT22;44330;51.360;6.686;2023-05-14T09:32:59;25.10;99.90
42663;DHT22;44330;51.360;6.686;2023-05-14T09:35:24;25.30;99.90
42663;DHT22;44330;51.360;6.686;2023-05-14T09:37:52;25.40;99.90
42663;DHT22;44330;51.360;6.686;2023-05-14T09:40:19;25.60;99.90
42663;DHT22;44330;51.360;6.686;2023-05-14T09:42:45;25.90;99.90
42663;DHT22;44330;51.360;6.686;2023-05-14T09:45:16;26.20;99.90
42663;DHT22;44330;51.360;6.686;2023-05-14T09:48:03;26.40;99.90
42663;DHT22;44330;51.360;6.686;2023-05-14T09:50:29;25.60;99.90
42663;DHT22;44330;51.360;6.686;2023-05-14T09:52:54;25.70;99.90
42663;DHT22;44330;51.360;6.686;2023-05-14T09:55:21;26.00;99.90
42663;DHT22;44330;51.360;6.686;2023-05-14T09:57:50;26.00;99.90
42663;DHT22;44330;51.360;6.686;2023-05-14T10:00:15;26.00;94.20
42663;DHT22;44330;51.360;6.686;2023-05-14T10:02:41;26.00;86.90
42663;DHT22;44330;51.360;6.686;2023-05-14T10:05:10;25.50;74.50
42663;DHT22;44330;51.360;6.686;2023-05-14T10:07:58;25.40;77.50
42663;DHT22;44330;51.360;6.686;2023-05-14T10:10:26;25.30;97.00
42663;DHT22;44330;51.360;6.686;2023-05-14T10:12:56;25.20;89.50
42663;DHT22;44330;51.360;6.686;2023-05-14T10:15:29;25.10;47.10
42663;DHT22;44330;51.360;6.686;2023-05-14T10:17:59;25.10;29.90
42663;DHT22;44330;51.360;6.686;2023-05-14T10:20:26;25.00;1.00
42663;DHT22;44330;51.360;6.686;2023-05-14T10:22:52;24.90;1.00
42663;DHT22;44330;51.360;6.686;2023-05-14T10:25:18;25.00;1.00
42663;DHT22;44330;51.360;6.686;2023-05-14T10:27:45;24.60;1.00
42663;DHT22;44330;51.360;6.686;2023-05-14T10:30:11;24.30;99.90
42663;DHT22;44330;51.360;6.686;2023-05-14T10:32:39;24.40;99.90
42663;DHT22;44330;51.360;6.686;2023-05-14T10:35:17;24.50;99.90
42663;DHT22;44330;51.360;6.686;2023-05-14T10:37:44;24.40;99.90
42663;DHT22;44330;51.360;6.686;2023-05-14T10:40:12;24.40;99.90
42663;DHT22;44330;51.360;6.686;2023-05-14T10:42:41;24.50;99.90
42663;DHT22;44330;51.360;6.686;2023-05-14T10:45:13;24.40;99.90
42663;DHT22;44330;51.360;6.686;2023-05-14T10:47:42;24.40;99.90
42663;DHT22;44330;51.360;6.686;2023-05-14T10:50:08;24.40;99.90
42663;DHT22;44330;51.360;6.686;2023-05-14T10:52:34;24.40;99.90
42663;DHT22;44330;51.360;6.686;2023-05-14T10:55:02;24.20;99.90
42663;DHT22;44330;51.360;6.686;2023-05-14T10:57:30;24.40;99.90
42663;DHT22;44330;51.360;6.686;2023-05-14T10:59:58;24.70;99.90
42663;DHT22;44330;51.360;6.686;2023-05-14T11:02:32;25.00;99.90
42663;DHT22;44330;51.360;6.686;2023-05-14T11:05:02;24.80;99.90
42663;DHT22;44330;51.360;6.686;2023-05-14T11:07:31;24.70;99.90
42663;DHT22;44330;51.360;6.686;2023-05-14T11:10:04;24.60;99.90
42663;DHT22;44330;51.360;6.686;2023-05-14T11:12:30;24.60;99.90
42663;DHT22;44330;51.360;6.686;2023-05-14T11:14:57;24.70;99.90
42663;DHT22;44330;51.360;6.686;2023-05-14T11:17:27;24.70;99.90
42663;DHT22;44330;51.360;6.686;2023-05-14T11:19:54;24.70;99.90
42663;DHT22;44330;51.360;6.686;2023-05-14T11:22:19;24.80;99.90
42663;DHT22;44330;51.360;6.686;2023-05-14T11:24:45;24.70;99.90
42663;DHT22;44330;51.360;6.686;2023-05-14T11:27:11;24.70;99.90
42663;DHT22;44330;51.360;6.686;2023-05-14T11:29:37;24.70;99.90
42663;DHT22;44330;51.360;6.686;2023-05-14T11:32:06;24.60;99.90
42663;DHT22;44330;51.360;6.686;2023-05-14T11:34:32;24.50;99.90
42663;DHT22;44330;51.360;6.686;2023-05-14T11:37:04;24.30;99.90
42663;DHT22;44330;51.360;6.686;2023-05-14T11:39:31;24.30;99.90
42663;DHT22;44330;51.360;6.686;2023-05-14T11:41:58;24.50;99.90
42663;DHT22;44330;51.360;6.686;2023-05-14T11:44:24;24.30;99.90
42663;DHT22;44330;51.360;6.686;2023-05-14T11:47:02;24.00;99.90
42663;DHT22;44330;51.360;6.686;2023-05-14T11:49:29;24.10;99.90
42663;DHT22;44330;51.360;6.686;2023-05-14T11:51:59;24.40;99.90
42663;DHT22;44330;51.360;6.686;2023-05-14T11:54:26;24.90;99.90
42663;DHT22;44330;51.360;6.686;2023-05-14T11:56:51;25.40;99.90
42663;DHT22;44330;51.360;6.686;2023-05-14T11:59:18;25.70;99.90
42663;DHT22;44330;51.360;6.686;2023-05-14T12:01:44;26.00;99.90
42663;DHT22;44330;51.360;6.686;2023-05-14T12:04:11;26.20;99.90
42663;DHT22;44330;51.360;6.686;2023-05-14T12:06:38;26.00;99.90
42663;DHT22;44330;51.360;6.686;2023-05-14T12:09:04;25.50;99.90
42663;DHT22;44330;51.360;6.686;2023-05-14T12:11:30;25.40;99.90
42663;DHT22;44330;51.360;6.686;2023-05-14T12:14:00;25.50;99.90
42663;DHT22;44330;51.360;6.686;2023-05-14T12:16:29;25.60;99.90
42663;DHT22;44330;51.360;6.686;2023-05-14T12:18:59;25.70;99.90
42663;DHT22;44330;51.360;6.686;2023-05-14T12:21:27;26.10;99.90
42663;DHT22;44330;51.360;6.686;2023-05-14T12:23:57;26.40;99.90
42663;DHT22;44330;51.360;6.686;2023-05-14T12:26:24;26.50;99.90
42663;DHT22;44330;51.360;6.686;2023-05-14T12:28:59;26.50;99.90
42663;DHT22;44330;51.360;6.686;2023-05-14T12:31:35;26.80;99.90
42663;DHT22;44330;51.360;6.686;2023-05-14T12:34:02;26.90;99.90
42663;DHT22;44330;51.360;6.686;2023-05-14T12:36:28;25.70;99.90
42663;DHT22;44330;51.360;6.686;2023-05-14T12:39:00;25.10;99.90
42663;DHT22;44330;51.360;6.686;2023-05-14T12:41:27;25.70;99.90
42663;DHT22;44330;51.360;6.686;2023-05-14T12:43:52;26.10;99.90
42663;DHT22;44330;51.360;6.686;2023-05-14T12:46:18;26.40;99.90
42663;DHT22;44330;51.360;6.686;2023-05-14T12:48:44;26.20;99.90
42663;DHT22;44330;51.360;6.686;2023-05-14T12:51:09;26.40;99.90
42663;DHT22;44330;51.360;6.686;2023-05-14T12:53:35;26.50;99.90
42663;DHT22;44330;51.360;6.686;2023-05-14T12:56:00;26.70;99.90
42663;DHT22;44330;51.360;6.686;2023-05-14T12:58:26;26.70;99.90
42663;DHT22;44330;51.360;6.686;2023-05-14T13:00:51;26.70;99.90
42663;DHT22;44330;51.360;6.686;2023-05-14T13:03:17;26.90;99.90
42663;DHT22;44330;51.360;6.686;2023-05-14T13:05:42;26.70;99.90
42663;DHT22;44330;51.360;6.686;2023-05-14T13:08:08;26.60;99.90
42663;DHT22;44330;51.360;6.686;2023-05-14T13:10:34;26.70;99.90
42663;DHT22;44330;51.360;6.686;2023-05-14T13:13:00;26.50;99.90
42663;DHT22;44330;51.360;6.686;2023-05-14T13:15:27;26.60;99.90
42663;DHT22;44330;51.360;6.686;2023-05-14T13:17:52;26.90;99.90
42663;DHT22;44330;51.360;6.686;2023-05-14T13:23:08;26.10;99.90
42663;DHT22;44330;51.360;6.686;2023-05-14T13:25:34;26.20;99.90
42663;DHT22;44330;51.360;6.686;2023-05-14T13:28:00;26.20;99.90
42663;DHT22;44330;51.360;6.686;2023-05-14T13:30:25;26.50;99.90
42663;DHT22;44330;51.360;6.686;2023-05-14T13:32:51;26.80;99.90
42663;DHT22;44330;51.360;6.686;2023-05-14T13:35:17;26.90;99.90
42663;DHT22;44330;51.360;6.686;2023-05-14T13:37:43;26.80;99.90
42663;DHT22;44330;51.360;6.686;2023-05-14T13:40:09;26.60;99.90
42663;DHT22;44330;51.360;6.686;2023-05-14T13:42:35;26.70;99.90
42663;DHT22;44330;51.360;6.686;2023-05-14T13:45:01;26.80;99.90
42663;DHT22;44330;51.360;6.686;2023-05-14T13:47:27;26.90;99.90
42663;DHT22;44330;51.360;6.686;2023-05-14T13:49:53;26.50;99.90
42663;DHT22;44330;51.360;6.686;2023-05-14T13:52:19;25.50;99.90
42663;DHT22;44330;51.360;6.686;2023-05-14T13:54:45;24.50;99.90
42663;DHT22;44330;51.360;6.686;2023-05-14T13:57:11;24.50;99.90
42663;DHT22;44330;51.360;6.686;2023-05-14T13:59:36;24.80;99.90
42663;DHT22;44330;51.360;6.686;2023-05-14T14:02:02;24.20;99.90
42663;DHT22;44330;51.360;6.686;2023-05-14T14:04:28;24.10;99.90
